sensor_id;sensor_type;location;lat;lon;timestamp;pressure;altitude;pressure_sealevel;temperature;humidity
11329;BME280;5719;42.714;23.732;2022-12-07T00:00:55;94401.91;;;6.49;100.00
11329;BME280;5719;42.714;23.732;2022-12-07T00:03:21;94406.59;;;6.43;100.00
11329;BME280;5719;42.714;23.732;2022-12-07T00:05:48;94394.59;;;6.43;100.00
11329;BME280;5719;42.714;23.732;2022-12-07T00:08:15;94397.97;;;6.44;100.00
11329;BME280;5719;42.714;23.732;2022-12-07T00:10:42;94397.06;;;6.45;100.00
11329;BME280;5719;42.714;23.732;2022-12-07T00:13:09;94398.63;;;6.47;100.00
11329;BME280;5719;42.714;23.732;2022-12-07T00:15:37;94391.84;;;6.46;100.00
11329;BME280;5719;42.714;23.732;2022-12-07T00:18:04;94392.75;;;6.45;100.00
11329;BME280;5719;42.714;23.732;2022-12-07T00:20:31;94393.50;;;6.47;100.00
11329;BME280;5719;42.714;23.732;2022-12-07T00:22:58;94392.59;;;6.48;100.00
11329;BME280;5719;42.714;23.732;2022-12-07T00:25:25;94400.13;;;6.51;100.00
11329;BME280;5719;42.714;23.732;2022-12-07T00:27:52;94395.06;;;6.50;100.00
11329;BME280;5719;42.714;23.732;2022-12-07T00:30:21;94398.25;;;6.53;100.00
11329;BME280;5719;42.714;23.732;2022-12-07T00:32:49;94396.72;;;6.51;100.00
11329;BME280;5719;42.714;23.732;2022-12-07T00:35:16;94400.94;;;6.52;100.00
11329;BME280;5719;42.714;23.732;2022-12-07T00:37:43;94403.16;;;6.58;100.00
11329;BME280;5719;42.714;23.732;2022-12-07T00:40:10;94398.88;;;6.43;100.00
11329;BME280;5719;42.714;23.732;2022-12-07T00:42:37;94402.84;;;6.48;100.00
11329;BME280;5719;42.714;23.732;2022-12-07T00:45:05;94401.09;;;6.49;100.00
11329;BME280;5719;42.714;23.732;2022-12-07T00:47:33;94392.75;;;6.45;100.00
11329;BME280;5719;42.714;23.732;2022-12-07T00:50:01;94391.84;;;6.46;100.00
11329;BME280;5719;42.714;23.732;2022-12-07T00:52:28;94400.00;;;6.53;100.00
11329;BME280;5719;42.714;23.732;2022-12-07T00:54:55;94399.84;;;6.56;100.00
11329;BME280;5719;42.714;23.732;2022-12-07T00:57:22;94393.56;;;6.46;100.00
11329;BME280;5719;42.714;23.732;2022-12-07T00:59:49;94389.72;;;6.53;100.00
11329;BME280;5719;42.714;23.732;2022-12-07T01:02:15;94392.84;;;6.44;100.00
11329;BME280;5719;42.714;23.732;2022-12-07T01:04:42;94393.09;;;6.39;100.00
11329;BME280;5719;42.714;23.732;2022-12-07T01:07:10;94391.72;;;6.33;100.00
11329;BME280;5719;42.714;23.732;2022-12-07T01:09:37;94384.16;;;6.30;100.00
11329;BME280;5719;42.714;23.732;2022-12-07T01:12:05;94380.53;;;6.34;100.00
11329;BME280;5719;42.714;23.732;2022-12-07T01:14:32;94373.25;;;6.27;100.00
11329;BME280;5719;42.714;23.732;2022-12-07T01:16:58;94367.38;;;6.25;100.00
11329;BME280;5719;42.714;23.732;2022-12-07T01:19:25;94371.97;;;6.34;100.00
11329;BME280;5719;42.714;23.732;2022-12-07T01:21:52;94368.50;;;6.35;100.00
11329;BME280;5719;42.714;23.732;2022-12-07T01:24:20;94372.81;;;6.34;100.00
11329;BME280;5719;42.714;23.732;2022-12-07T01:26:49;94369.28;;;6.37;100.00
11329;BME280;5719;42.714;23.732;2022-12-07T01:29:15;94371.06;;;6.35;100.00
11329;BME280;5719;42.714;23.732;2022-12-07T01:31:42;94373.75;;;6.33;100.00
11329;BME280;5719;42.714;23.732;2022-12-07T01:34:10;94374.72;;;6.31;100.00
11329;BME280;5719;42.714;23.732;2022-12-07T01:36:36;94370.44;;;6.31;100.00
11329;BME280;5719;42.714;23.732;2022-12-07T01:39:05;94365.41;;;6.30;100.00
11329;BME280;5719;42.714;23.732;2022-12-07T01:41:36;94366.38;;;6.27;100.00
11329;BME280;5719;42.714;23.732;2022-12-07T01:44:12;94358.22;;;6.21;100.00
11329;BME280;5719;42.714;23.732;2022-12-07T01:46:41;94366.31;;;6.29;100.00
11329;BME280;5719;42.714;23.732;2022-12-07T01:49:12;94358.16;;;6.36;100.00
11329;BME280;5719;42.714;23.732;2022-12-07T01:51:42;94361.94;;;6.45;100.00
11329;BME280;5719;42.714;23.732;2022-12-07T01:54:11;94360.13;;;6.47;100.00
11329;BME280;5719;42.714;23.732;2022-12-07T01:56:45;94349.41;;;6.55;100.00
11329;BME280;5719;42.714;23.732;2022-12-07T01:59:15;94349.47;;;6.53;100.00
11329;BME280;5719;42.714;23.732;2022-12-07T02:01:43;94345.63;;;6.46;100.00
11329;BME280;5719;42.714;23.732;2022-12-07T02:04:11;94347.72;;;6.39;100.00
11329;BME280;5719;42.714;23.732;2022-12-07T02:06:38;94340.63;;;6.29;100.00
11329;BME280;5719;42.714;23.732;2022-12-07T02:09:05;94336.84;;;6.20;100.00
11329;BME280;5719;42.714;23.732;2022-12-07T02:11:32;94338.09;;;6.13;100.00
11329;BME280;5719;42.714;23.732;2022-12-07T02:14:01;94344.97;;;6.13;100.00
11329;BME280;5719;42.714;23.732;2022-12-07T02:16:33;94343.41;;;6.10;100.00
11329;BME280;5719;42.714;23.732;2022-12-07T02:19:21;94341.75;;;6.09;100.00
11329;BME280;5719;42.714;23.732;2022-12-07T02:21:59;94342.34;;;6.14;100.00
11329;BME280;5719;42.714;23.732;2022-12-07T02:24:45;94330.66;;;6.09;100.00
11329;BME280;5719;42.714;23.732;2022-12-07T02:27:28;94342.16;;;6.17;100.00
11329;BME280;5719;42.714;23.732;2022-12-07T02:30:01;94338.59;;;6.20;100.00
11329;BME280;5719;42.714;23.732;2022-12-07T02:32:40;94341.31;;;6.17;100.00
11329;BME280;5719;42.714;23.732;2022-12-07T02:35:12;94339.47;;;6.05;100.00
11329;BME280;5719;42.714;23.732;2022-12-07T02:37:46;94333.59;;;6.03;100.00
11329;BME280;5719;42.714;23.732;2022-12-07T02:40:19;94338.38;;;6.09;100.00
11329;BME280;5719;42.714;23.732;2022-12-07T02:42:53;94335.53;;;6.13;100.00
11329;BME280;5719;42.714;23.732;2022-12-07T02:45:24;94329.41;;;6.16;100.00
11329;BME280;5719;42.714;23.732;2022-12-07T02:47:55;94333.44;;;6.20;100.00
11329;BME280;5719;42.714;23.732;2022-12-07T02:50:24;94323.09;;;6.21;100.00
11329;BME280;5719;42.714;23.732;2022-12-07T02:52:51;94321.06;;;6.12;100.00
11329;BME280;5719;42.714;23.732;2022-12-07T02:55:21;94327.59;;;6.18;100.00
11329;BME280;5719;42.714;23.732;2022-12-07T02:57:57;94327.66;;;6.16;100.00
11329;BME280;5719;42.714;23.732;2022-12-07T03:00:31;94319.50;;;6.10;100.00
11329;BME280;5719;42.714;23.732;2022-12-07T03:03:08;94326.94;;;6.14;100.00
11329;BME280;5719;42.714;23.732;2022-12-07T03:05:46;94335.72;;;6.10;100.00
11329;BME280;5719;42.714;23.732;2022-12-07T03:08:23;94322.97;;;6.09;100.00
11329;BME280;5719;42.714;23.732;2022-12-07T03:10:56;94322.25;;;6.07;100.00
11329;BME280;5719;42.714;23.732;2022-12-07T03:13:29;94332.44;;;6.08;100.00
11329;BME280;5719;42.714;23.732;2022-12-07T03:16:03;94317.03;;;6.08;100.00
11329;BME280;5719;42.714;23.732;2022-12-07T03:18:35;94317.69;;;6.12;100.00
11329;BME280;5719;42.714;23.732;2022-12-07T03:21:06;94327.78;;;6.15;100.00
11329;BME280;5719;42.714;23.732;2022-12-07T03:23:37;94325.09;;;6.16;100.00
11329;BME280;5719;42.714;23.732;2022-12-07T03:26:08;94332.53;;;6.21;100.00
11329;BME280;5719;42.714;23.732;2022-12-07T03:28:41;94330.88;;;6.20;100.00
11329;BME280;5719;42.714;23.732;2022-12-07T03:31:13;94323.75;;;6.25;100.00
11329;BME280;5719;42.714;23.732;2022-12-07T03:33:46;94321.66;;;6.31;100.00
11329;BME280;5719;42.714;23.732;2022-12-07T03:36:19;94316.25;;;6.36;100.00
11329;BME280;5719;42.714;23.732;2022-12-07T03:38:50;94304.97;;;6.38;100.00
11329;BME280;5719;42.714;23.732;2022-12-07T03:41:24;94310.94;;;6.39;100.00
11329;BME280;5719;42.714;23.732;2022-12-07T03:43:53;94311.50;;;6.30;100.00
11329;BME280;5719;42.714;23.732;2022-12-07T03:46:29;94302.66;;;6.20;100.00
11329;BME280;5719;42.714;23.732;2022-12-07T03:49:06;94307.97;;;6.17;100.00
11329;BME280;5719;42.714;23.732;2022-12-07T03:51:40;94309.81;;;6.15;100.00
11329;BME280;5719;42.714;23.732;2022-12-07T03:54:13;94311.53;;;6.14;100.00
11329;BME280;5719;42.714;23.732;2022-12-07T03:56:42;94308.97;;;6.14;100.00
11329;BME280;5719;42.714;23.732;2022-12-07T03:59:11;94308.88;;;6.16;100.00
11329;BME280;5719;42.714;23.732;2022-12-07T04:01:41;94307.25;;;6.15;100.00
11329;BME280;5719;42.714;23.732;2022-12-07T04:04:08;94305.31;;;6.18;100.00
11329;BME280;5719;42.714;23.732;2022-12-07T04:06:35;94311.19;;;6.20;100.00
11329;BME280;5719;42.714;23.732;2022-12-07T04:09:02;94303.59;;;6.19;100.00
11329;BME280;5719;42.714;23.732;2022-12-07T04:11:29;94302.44;;;6.09;100.00
11329;BME280;5719;42.714;23.732;2022-12-07T04:13:56;94291.59;;;5.89;100.00
11329;BME280;5719;42.714;23.732;2022-12-07T04:16:57;94309.78;;;5.69;100.00
11329;BME280;5719;42.714;23.732;2022-12-07T04:19:27;94304.25;;;5.61;100.00
11329;BME280;5719;42.714;23.732;2022-12-07T04:21:54;94302.03;;;5.55;100.00
11329;BME280;5719;42.714;23.732;2022-12-07T04:24:21;94304.84;;;5.51;100.00
11329;BME280;5719;42.714;23.732;2022-12-07T04:26:48;94304.38;;;5.44;100.00
11329;BME280;5719;42.714;23.732;2022-12-07T04:29:16;94294.63;;;5.35;100.00
11329;BME280;5719;42.714;23.732;2022-12-07T04:31:43;94315.03;;;5.52;100.00
11329;BME280;5719;42.714;23.732;2022-12-07T04:34:15;94311.41;;;5.56;100.00
11329;BME280;5719;42.714;23.732;2022-12-07T04:36:42;94316.94;;;5.64;100.00
11329;BME280;5719;42.714;23.732;2022-12-07T04:39:20;94310.31;;;5.60;100.00
11329;BME280;5719;42.714;23.732;2022-12-07T04:41:47;94306.50;;;5.52;100.00
11329;BME280;5719;42.714;23.732;2022-12-07T04:44:15;94300.00;;;5.30;100.00
11329;BME280;5719;42.714;23.732;2022-12-07T04:46:43;94287.88;;;5.03;100.00
11329;BME280;5719;42.714;23.732;2022-12-07T04:49:12;94308.19;;;5.06;100.00
11329;BME280;5719;42.714;23.732;2022-12-07T04:51:39;94306.38;;;5.08;100.00
11329;BME280;5719;42.714;23.732;2022-12-07T04:54:06;94312.66;;;5.02;100.00
11329;BME280;5719;42.714;23.732;2022-12-07T04:56:33;94308.91;;;5.08;100.00
11329;BME280;5719;42.714;23.732;2022-12-07T04:59:01;94314.63;;;5.13;100.00
11329;BME280;5719;42.714;23.732;2022-12-07T05:01:29;94307.13;;;5.10;100.00
11329;BME280;5719;42.714;23.732;2022-12-07T05:03:56;94309.75;;;5.08;100.00
11329;BME280;5719;42.714;23.732;2022-12-07T05:06:24;94307.66;;;4.99;100.00
11329;BME280;5719;42.714;23.732;2022-12-07T05:08:51;94317.13;;;4.99;100.00
11329;BME280;5719;42.714;23.732;2022-12-07T05:11:18;94312.88;;;4.98;100.00
11329;BME280;5719;42.714;23.732;2022-12-07T05:13:59;94312.78;;;4.99;100.00
11329;BME280;5719;42.714;23.732;2022-12-07T05:16:26;94313.47;;;5.03;100.00
11329;BME280;5719;42.714;23.732;2022-12-07T05:18:53;94310.16;;;5.01;100.00
11329;BME280;5719;42.714;23.732;2022-12-07T05:21:20;94316.72;;;5.06;100.00
11329;BME280;5719;42.714;23.732;2022-12-07T05:23:48;94309.69;;;5.10;100.00
11329;BME280;5719;42.714;23.732;2022-12-07T05:26:15;94307.38;;;5.21;100.00
11329;BME280;5719;42.714;23.732;2022-12-07T05:28:42;94310.16;;;5.32;100.00
11329;BME280;5719;42.714;23.732;2022-12-07T05:31:09;94308.00;;;5.40;100.00
11329;BME280;5719;42.714;23.732;2022-12-07T05:33:36;94310.56;;;5.40;100.00
11329;BME280;5719;42.714;23.732;2022-12-07T05:36:03;94302.06;;;5.39;100.00
11329;BME280;5719;42.714;23.732;2022-12-07T05:38:33;94302.72;;;5.43;100.00
11329;BME280;5719;42.714;23.732;2022-12-07T05:41:02;94310.25;;;5.46;100.00
11329;BME280;5719;42.714;23.732;2022-12-07T05:43:30;94304.97;;;5.49;100.00
11329;BME280;5719;42.714;23.732;2022-12-07T05:45:57;94310.31;;;5.44;100.00
11329;BME280;5719;42.714;23.732;2022-12-07T05:48:24;94315.53;;;5.43;100.00
11329;BME280;5719;42.714;23.732;2022-12-07T05:50:51;94320.41;;;5.48;100.00
11329;BME280;5719;42.714;23.732;2022-12-07T05:53:18;94317.78;;;5.49;100.00
11329;BME280;5719;42.714;23.732;2022-12-07T05:55:45;94316.69;;;5.53;100.00
11329;BME280;5719;42.714;23.732;2022-12-07T05:58:14;94311.41;;;5.56;100.00
11329;BME280;5719;42.714;23.732;2022-12-07T06:00:58;94304.44;;;5.58;100.00
11329;BME280;5719;42.714;23.732;2022-12-07T06:03:24;94311.94;;;5.61;100.00
11329;BME280;5719;42.714;23.732;2022-12-07T06:05:52;94311.88;;;5.63;100.00
11329;BME280;5719;42.714;23.732;2022-12-07T06:08:18;94309.25;;;5.64;100.00
11329;BME280;5719;42.714;23.732;2022-12-07T06:10:47;94305.00;;;5.63;100.00
11329;BME280;5719;42.714;23.732;2022-12-07T06:13:36;94318.56;;;5.65;100.00
11329;BME280;5719;42.714;23.732;2022-12-07T06:16:02;94313.78;;;5.59;100.00
11329;BME280;5719;42.714;23.732;2022-12-07T06:18:29;94319.91;;;5.57;100.00
11329;BME280;5719;42.714;23.732;2022-12-07T06:20:56;94319.91;;;5.57;100.00
11329;BME280;5719;42.714;23.732;2022-12-07T06:23:23;94314.28;;;5.66;100.00
11329;BME280;5719;42.714;23.732;2022-12-07T06:25:50;94305.91;;;5.62;100.00
11329;BME280;5719;42.714;23.732;2022-12-07T06:28:17;94300.72;;;5.64;100.00
11329;BME280;5719;42.714;23.732;2022-12-07T06:30:45;94306.50;;;5.67;100.00
11329;BME280;5719;42.714;23.732;2022-12-07T06:33:12;94314.75;;;5.72;100.00
11329;BME280;5719;42.714;23.732;2022-12-07T06:35:39;94307.16;;;5.71;100.00
11329;BME280;5719;42.714;23.732;2022-12-07T06:38:06;94308.72;;;5.73;100.00
11329;BME280;5719;42.714;23.732;2022-12-07T06:40:33;94306.63;;;5.80;100.00
11329;BME280;5719;42.714;23.732;2022-12-07T06:42:59;94313.94;;;5.87;100.00
11329;BME280;5719;42.714;23.732;2022-12-07T06:45:26;94311.84;;;5.94;100.00
11329;BME280;5719;42.714;23.732;2022-12-07T06:47:54;94316.88;;;5.96;100.00
11329;BME280;5719;42.714;23.732;2022-12-07T06:50:21;94320.03;;;6.01;100.00
11329;BME280;5719;42.714;23.732;2022-12-07T06:52:48;94324.72;;;6.08;100.00
11329;BME280;5719;42.714;23.732;2022-12-07T06:55:15;94326.56;;;6.20;100.00
11329;BME280;5719;42.714;23.732;2022-12-07T06:57:42;94318.25;;;6.31;100.00
11329;BME280;5719;42.714;23.732;2022-12-07T07:00:10;94314.41;;;6.38;100.00
11329;BME280;5719;42.714;23.732;2022-12-07T07:02:37;94314.81;;;6.46;100.00
11329;BME280;5719;42.714;23.732;2022-12-07T07:05:06;94317.75;;;6.54;100.00
11329;BME280;5719;42.714;23.732;2022-12-07T07:07:33;94308.19;;;6.56;100.00
11329;BME280;5719;42.714;23.732;2022-12-07T07:10:00;94333.34;;;6.65;100.00
11329;BME280;5719;42.714;23.732;2022-12-07T07:12:27;94333.25;;;6.67;100.00
11329;BME280;5719;42.714;23.732;2022-12-07T07:14:53;94325.09;;;6.74;100.00
11329;BME280;5719;42.714;23.732;2022-12-07T07:17:20;94320.13;;;6.85;100.00
11329;BME280;5719;42.714;23.732;2022-12-07T07:19:47;94320.31;;;6.97;100.00
11329;BME280;5719;42.714;23.732;2022-12-07T07:22:16;94318.13;;;7.05;100.00
11329;BME280;5719;42.714;23.732;2022-12-07T07:24:43;94319.84;;;7.18;100.00
11329;BME280;5719;42.714;23.732;2022-12-07T07:27:10;94321.59;;;7.32;100.00
11329;BME280;5719;42.714;23.732;2022-12-07T07:29:37;94314.75;;;7.45;100.00
11329;BME280;5719;42.714;23.732;2022-12-07T07:32:04;94318.03;;;7.61;100.00
11329;BME280;5719;42.714;23.732;2022-12-07T07:34:31;94321.66;;;7.71;100.00
11329;BME280;5719;42.714;23.732;2022-12-07T07:36:58;94325.84;;;7.86;99.94
11329;BME280;5719;42.714;23.732;2022-12-07T07:39:26;94319.69;;;8.02;98.12
11329;BME280;5719;42.714;23.732;2022-12-07T07:41:53;94312.50;;;8.07;97.57
11329;BME280;5719;42.714;23.732;2022-12-07T07:44:20;94317.47;;;8.22;97.01
11329;BME280;5719;42.714;23.732;2022-12-07T07:46:47;94317.72;;;8.32;97.38
11329;BME280;5719;42.714;23.732;2022-12-07T07:49:14;94307.84;;;8.38;95.97
11329;BME280;5719;42.714;23.732;2022-12-07T07:51:41;94317.03;;;8.55;96.64
11329;BME280;5719;42.714;23.732;2022-12-07T07:54:08;94312.00;;;8.66;95.80
11329;BME280;5719;42.714;23.732;2022-12-07T07:56:36;94306.44;;;8.72;94.40
11329;BME280;5719;42.714;23.732;2022-12-07T07:59:03;94309.31;;;8.68;94.04
11329;BME280;5719;42.714;23.732;2022-12-07T08:01:29;94312.28;;;8.74;93.66
11329;BME280;5719;42.714;23.732;2022-12-07T08:03:56;94313.72;;;8.78;93.29
11329;BME280;5719;42.714;23.732;2022-12-07T08:06:23;94316.84;;;8.83;92.76
11329;BME280;5719;42.714;23.732;2022-12-07T08:08:50;94322.81;;;8.97;91.96
11329;BME280;5719;42.714;23.732;2022-12-07T08:11:17;94317.00;;;9.18;92.49
11329;BME280;5719;42.714;23.732;2022-12-07T08:13:46;94321.00;;;9.35;90.01
11329;BME280;5719;42.714;23.732;2022-12-07T08:16:13;94318.50;;;9.70;88.85
11329;BME280;5719;42.714;23.732;2022-12-07T08:18:41;94316.25;;;10.13;87.04
11329;BME280;5719;42.714;23.732;2022-12-07T08:21:11;94307.94;;;10.44;84.98
11329;BME280;5719;42.714;23.732;2022-12-07T08:23:38;94316.50;;;11.02;83.97
11329;BME280;5719;42.714;23.732;2022-12-07T08:26:07;94311.97;;;11.70;79.13
11329;BME280;5719;42.714;23.732;2022-12-07T08:28:34;94313.91;;;12.32;75.08
11329;BME280;5719;42.714;23.732;2022-12-07T08:31:05;94309.56;;;12.53;71.19
11329;BME280;5719;42.714;23.732;2022-12-07T08:33:32;94308.31;;;13.10;69.22
11329;BME280;5719;42.714;23.732;2022-12-07T08:36:00;94307.47;;;13.80;66.25
11329;BME280;5719;42.714;23.732;2022-12-07T08:38:27;94303.66;;;14.03;63.70
11329;BME280;5719;42.714;23.732;2022-12-07T08:40:54;94305.81;;;13.79;63.57
11329;BME280;5719;42.714;23.732;2022-12-07T08:43:22;94302.16;;;14.10;63.34
11329;BME280;5719;42.714;23.732;2022-12-07T08:45:53;94306.19;;;14.52;60.71
11329;BME280;5719;42.714;23.732;2022-12-07T08:48:25;94299.72;;;14.85;60.11
11329;BME280;5719;42.714;23.732;2022-12-07T08:50:52;94303.34;;;15.02;58.91
11329;BME280;5719;42.714;23.732;2022-12-07T08:53:20;94297.50;;;15.00;57.71
11329;BME280;5719;42.714;23.732;2022-12-07T08:55:48;94301.38;;;15.23;57.71
11329;BME280;5719;42.714;23.732;2022-12-07T08:58:15;94293.28;;;15.90;56.65
11329;BME280;5719;42.714;23.732;2022-12-07T09:00:42;94298.84;;;16.58;55.16
11329;BME280;5719;42.714;23.732;2022-12-07T09:03:09;94298.28;;;16.90;52.69
11329;BME280;5719;42.714;23.732;2022-12-07T09:05:37;94298.75;;;17.11;53.00
11329;BME280;5719;42.714;23.732;2022-12-07T09:08:05;94296.09;;;16.24;55.75
11329;BME280;5719;42.714;23.732;2022-12-07T09:10:32;94298.81;;;16.40;54.73
11329;BME280;5719;42.714;23.732;2022-12-07T09:12:59;94288.97;;;16.52;54.00
11329;BME280;5719;42.714;23.732;2022-12-07T09:15:26;94284.56;;;16.88;53.43
11329;BME280;5719;42.714;23.732;2022-12-07T09:17:53;94280.59;;;16.84;52.47
11329;BME280;5719;42.714;23.732;2022-12-07T09:20:20;94285.56;;;16.95;51.92
11329;BME280;5719;42.714;23.732;2022-12-07T09:22:49;94290.88;;;17.03;51.10
11329;BME280;5719;42.714;23.732;2022-12-07T09:25:16;94281.19;;;17.21;50.92
11329;BME280;5719;42.714;23.732;2022-12-07T09:27:43;94276.09;;;17.20;50.49
11329;BME280;5719;42.714;23.732;2022-12-07T09:30:10;94281.66;;;16.73;51.13
11329;BME280;5719;42.714;23.732;2022-12-07T09:32:37;94268.03;;;16.79;50.74
11329;BME280;5719;42.714;23.732;2022-12-07T09:35:04;94265.03;;;16.74;50.97
11329;BME280;5719;42.714;23.732;2022-12-07T09:37:31;94273.19;;;16.71;51.08
11329;BME280;5719;42.714;23.732;2022-12-07T09:40:04;94278.25;;;16.73;51.95
11329;BME280;5719;42.714;23.732;2022-12-07T09:42:35;94267.13;;;16.53;52.75
11329;BME280;5719;42.714;23.732;2022-12-07T09:45:05;94269.00;;;16.07;53.56
11329;BME280;5719;42.714;23.732;2022-12-07T09:47:34;94262.63;;;15.47;56.09
11329;BME280;5719;42.714;23.732;2022-12-07T09:50:06;94264.91;;;15.60;55.85
11329;BME280;5719;42.714;23.732;2022-12-07T09:52:34;94254.44;;;15.69;55.86
11329;BME280;5719;42.714;23.732;2022-12-07T09:55:03;94260.50;;;15.33;55.92
11329;BME280;5719;42.714;23.732;2022-12-07T09:57:32;94254.28;;;15.44;55.22
11329;BME280;5719;42.714;23.732;2022-12-07T10:00:01;94250.16;;;15.41;56.67
11329;BME280;5719;42.714;23.732;2022-12-07T10:02:35;94256.56;;;15.56;55.71
11329;BME280;5719;42.714;23.732;2022-12-07T10:05:05;94248.91;;;15.45;55.82
11329;BME280;5719;42.714;23.732;2022-12-07T10:07:32;94244.25;;;15.76;55.28
11329;BME280;5719;42.714;23.732;2022-12-07T10:09:59;94238.63;;;15.98;54.61
11329;BME280;5719;42.714;23.732;2022-12-07T10:12:27;94237.66;;;16.17;53.54
11329;BME280;5719;42.714;23.732;2022-12-07T10:14:56;94224.63;;;16.17;54.22
11329;BME280;5719;42.714;23.732;2022-12-07T10:17:36;94222.75;;;15.92;54.97
11329;BME280;5719;42.714;23.732;2022-12-07T10:20:16;94214.25;;;15.90;55.57
11329;BME280;5719;42.714;23.732;2022-12-07T10:22:57;94211.81;;;15.88;55.49
11329;BME280;5719;42.714;23.732;2022-12-07T10:25:27;94207.63;;;15.95;54.67
11329;BME280;5719;42.714;23.732;2022-12-07T10:28:00;94208.13;;;16.16;54.36
11329;BME280;5719;42.714;23.732;2022-12-07T10:30:28;94207.88;;;16.63;52.95
11329;BME280;5719;42.714;23.732;2022-12-07T10:32:56;94204.16;;;16.99;51.30
11329;BME280;5719;42.714;23.732;2022-12-07T10:35:26;94199.53;;;17.19;50.94
11329;BME280;5719;42.714;23.732;2022-12-07T10:37:54;94195.59;;;17.23;50.47
11329;BME280;5719;42.714;23.732;2022-12-07T10:40:28;94198.81;;;17.43;50.11
11329;BME280;5719;42.714;23.732;2022-12-07T10:43:08;94191.31;;;17.56;50.19
11329;BME280;5719;42.714;23.732;2022-12-07T10:46:00;94177.69;;;17.86;49.90
11329;BME280;5719;42.714;23.732;2022-12-07T10:48:35;94180.16;;;17.80;48.90
11329;BME280;5719;42.714;23.732;2022-12-07T10:51:10;94180.50;;;18.09;48.74
11329;BME280;5719;42.714;23.732;2022-12-07T10:53:55;94171.03;;;18.32;48.00
11329;BME280;5719;42.714;23.732;2022-12-07T10:56:43;94167.75;;;18.54;48.27
11329;BME280;5719;42.714;23.732;2022-12-07T10:59:33;94165.44;;;18.76;47.07
11329;BME280;5719;42.714;23.732;2022-12-07T11:02:20;94173.59;;;18.97;46.29
11329;BME280;5719;42.714;23.732;2022-12-07T11:04:59;94161.94;;;18.99;46.35
11329;BME280;5719;42.714;23.732;2022-12-07T11:07:38;94160.47;;;19.05;45.84
11329;BME280;5719;42.714;23.732;2022-12-07T11:10:13;94151.19;;;18.86;46.15
11329;BME280;5719;42.714;23.732;2022-12-07T11:13:00;94160.47;;;18.97;46.16
11329;BME280;5719;42.714;23.732;2022-12-07T11:15:40;94159.16;;;19.01;46.64
11329;BME280;5719;42.714;23.732;2022-12-07T11:18:13;94146.22;;;18.99;46.43
11329;BME280;5719;42.714;23.732;2022-12-07T11:20:52;94147.75;;;18.78;46.57
11329;BME280;5719;42.714;23.732;2022-12-07T11:23:29;94144.31;;;18.85;46.80
11329;BME280;5719;42.714;23.732;2022-12-07T11:26:06;94149.50;;;19.01;46.39
11329;BME280;5719;42.714;23.732;2022-12-07T11:28:55;94140.19;;;19.38;45.38
11329;BME280;5719;42.714;23.732;2022-12-07T11:31:32;94141.66;;;19.32;45.93
11329;BME280;5719;42.714;23.732;2022-12-07T11:34:09;94126.91;;;19.31;45.62
11329;BME280;5719;42.714;23.732;2022-12-07T11:36:40;94123.44;;;19.47;45.62
11329;BME280;5719;42.714;23.732;2022-12-07T11:39:16;94119.00;;;19.39;45.64
11329;BME280;5719;42.714;23.732;2022-12-07T11:41:48;94124.19;;;19.17;45.70
11329;BME280;5719;42.714;23.732;2022-12-07T11:44:25;94113.13;;;18.98;45.79
11329;BME280;5719;42.714;23.732;2022-12-07T11:46:59;94114.06;;;19.52;45.27
11329;BME280;5719;42.714;23.732;2022-12-07T11:49:40;94110.28;;;20.00;44.68
11329;BME280;5719;42.714;23.732;2022-12-07T11:52:17;94105.09;;;19.39;44.79
11329;BME280;5719;42.714;23.732;2022-12-07T11:54:47;94101.25;;;19.57;45.10
11329;BME280;5719;42.714;23.732;2022-12-07T11:57:22;94085.94;;;19.92;44.21
11329;BME280;5719;42.714;23.732;2022-12-07T11:59:56;94089.31;;;20.15;43.46
11329;BME280;5719;42.714;23.732;2022-12-07T12:02:33;94089.69;;;20.12;43.86
11329;BME280;5719;42.714;23.732;2022-12-07T12:05:12;94090.88;;;20.10;43.26
11329;BME280;5719;42.714;23.732;2022-12-07T12:07:41;94085.41;;;20.11;43.62
11329;BME280;5719;42.714;23.732;2022-12-07T12:10:18;94085.56;;;19.95;43.96
11329;BME280;5719;42.714;23.732;2022-12-07T12:13:16;94088.09;;;19.88;43.55
11329;BME280;5719;42.714;23.732;2022-12-07T12:16:05;94071.75;;;19.78;43.86
11329;BME280;5719;42.714;23.732;2022-12-07T12:18:49;94078.22;;;19.68;44.24
11329;BME280;5719;42.714;23.732;2022-12-07T12:21:22;94075.53;;;19.53;44.39
11329;BME280;5719;42.714;23.732;2022-12-07T12:23:56;94066.31;;;19.34;44.43
11329;BME280;5719;42.714;23.732;2022-12-07T12:26:27;94062.94;;;19.18;45.65
11329;BME280;5719;42.714;23.732;2022-12-07T12:28:56;94064.38;;;18.97;45.90
11329;BME280;5719;42.714;23.732;2022-12-07T12:31:37;94062.16;;;18.78;46.07
11329;BME280;5719;42.714;23.732;2022-12-07T12:34:32;94059.09;;;18.58;46.75
11329;BME280;5719;42.714;23.732;2022-12-07T12:36:59;94059.75;;;18.44;46.91
11329;BME280;5719;42.714;23.732;2022-12-07T12:39:27;94058.19;;;18.27;47.58
11329;BME280;5719;42.714;23.732;2022-12-07T12:41:58;94056.06;;;18.14;47.91
11329;BME280;5719;42.714;23.732;2022-12-07T12:45:20;94060.84;;;17.95;48.64
11329;BME280;5719;42.714;23.732;2022-12-07T12:48:02;94059.53;;;17.83;48.85
11329;BME280;5719;42.714;23.732;2022-12-07T12:50:33;94068.38;;;17.74;49.12
11329;BME280;5719;42.714;23.732;2022-12-07T12:53:12;94064.75;;;17.75;49.56
11329;BME280;5719;42.714;23.732;2022-12-07T12:58:49;94060.44;;;18.30;48.66
11329;BME280;5719;42.714;23.732;2022-12-07T13:01:40;94056.66;;;18.57;48.13
11329;BME280;5719;42.714;23.732;2022-12-07T13:04:30;94059.56;;;18.70;47.48
11329;BME280;5719;42.714;23.732;2022-12-07T13:07:03;94055.47;;;18.68;47.50
11329;BME280;5719;42.714;23.732;2022-12-07T13:09:33;94059.69;;;17.97;47.95
11329;BME280;5719;42.714;23.732;2022-12-07T13:12:04;94055.56;;;17.30;49.14
11329;BME280;5719;42.714;23.732;2022-12-07T13:14:56;94061.19;;;17.01;50.07
11329;BME280;5719;42.714;23.732;2022-12-07T13:18:01;94058.91;;;16.56;51.69
11329;BME280;5719;42.714;23.732;2022-12-07T13:20:50;94061.31;;;16.24;53.17
11329;BME280;5719;42.714;23.732;2022-12-07T13:23:35;94063.56;;;15.93;54.47